createdAt,value
2019-02-04T00:02:25.221Z,287.12
2019-02-04T00:04:54.965Z,283.60
2019-02-04T00:07:24.591Z,283.15
2019-02-04T00:09:54.328Z,282.07
2019-02-04T00:12:25.066Z,286.40
2019-02-04T00:14:54.845Z,283.73
2019-02-04T00:17:24.651Z,282.50
2019-02-04T00:19:54.641Z,281.50
2019-02-04T00:22:24.382Z,285.75
2019-02-04T00:24:54.071Z,281.05
2019-02-04T00:27:23.714Z,283.83
2019-02-04T00:29:53.361Z,285.90
2019-02-04T00:32:24.180Z,284.55
2019-02-04T00:34:54.892Z,284.10
2019-02-04T00:37:24.650Z,286.52
2019-02-04T00:39:56.384Z,287.35
2019-02-04T00:42:26.209Z,292.07
2019-02-04T00:44:56.109Z,292.30
2019-02-04T00:47:26.140Z,289.63
2019-02-04T00:49:56.813Z,290.40
2019-02-04T00:52:26.537Z,289.70
2019-02-04T00:54:56.413Z,288.90
2019-02-04T00:57:26.114Z,288.73
2019-02-04T00:59:55.793Z,295.18
2019-02-04T01:02:25.627Z,290.40
2019-02-04T01:04:56.277Z,291.08
2019-02-04T01:07:25.963Z,290.75
2019-02-04T01:09:55.793Z,289.48
2019-02-04T01:12:25.459Z,285.15
2019-02-04T01:14:55.643Z,287.60
2019-02-04T01:17:25.470Z,284.85
2019-02-04T01:19:55.394Z,281.50
2019-02-04T01:22:26.206Z,285.90
2019-02-04T01:24:56.811Z,288.23
2019-02-04T01:27:26.711Z,291.88
2019-02-04T01:29:56.483Z,290.90
2019-02-04T01:32:26.305Z,292.10
2019-02-04T01:34:56.133Z,291.70
2019-02-04T01:37:25.879Z,292.87
2019-02-04T01:40:00.224Z,295.95
2019-02-04T01:42:30.880Z,297.70
2019-02-04T01:45:00.801Z,297.75
2019-02-04T01:47:30.567Z,297.70
2019-02-04T01:50:01.260Z,295.57
2019-02-04T01:52:31.028Z,293.97
2019-02-04T01:55:00.716Z,291.90
2019-02-04T01:57:30.410Z,292.70
2019-02-04T02:00:00.321Z,293.17
2019-02-04T02:02:30.353Z,290.12
2019-02-04T02:05:00.098Z,293.40
2019-02-04T02:07:32.319Z,293.50
2019-02-04T02:10:02.288Z,296.70
2019-02-04T02:12:32.122Z,303.35
2019-02-04T02:15:01.903Z,304.95
2019-02-04T02:17:31.924Z,306.35
2019-02-04T02:20:01.643Z,307.60
2019-02-04T02:22:31.545Z,298.73
2019-02-04T02:25:01.277Z,301.65
2019-02-04T02:27:30.956Z,297.40
2019-02-04T02:30:01.032Z,291.63
2019-02-04T02:32:30.779Z,298.93
2019-02-04T02:35:00.879Z,295.60
2019-02-04T02:37:31.559Z,294.20
2019-02-04T02:40:01.463Z,291.20
2019-02-04T02:42:31.137Z,290.60
2019-02-04T02:45:00.897Z,294.10
2019-02-04T02:47:38.213Z,293.02
2019-02-04T02:50:02.307Z,292.52
2019-02-04T02:52:34.048Z,299.55
2019-02-04T02:55:04.528Z,302.10
2019-02-04T02:57:34.286Z,299.83
2019-02-04T03:00:07.506Z,299.15
2019-02-04T03:02:37.376Z,288.65
2019-02-04T03:05:10.479Z,294.52
2019-02-04T03:07:40.892Z,295.88
2019-02-04T03:10:14.025Z,291.15
2019-02-04T03:12:43.811Z,295.00
2019-02-04T03:15:13.885Z,289.77
2019-02-04T03:17:51.377Z,287.50
2019-02-04T03:20:15.707Z,286.27
2019-02-04T03:22:45.486Z,287.50
2019-02-04T03:25:16.217Z,284.73
2019-02-04T03:27:46.003Z,289.98
2019-02-04T03:30:30.732Z,287.82
2019-02-04T03:33:01.510Z,285.35
2019-02-04T03:35:31.517Z,281.27
2019-02-04T03:38:01.644Z,280.92
2019-02-04T03:40:32.416Z,282.37
2019-02-04T03:43:02.221Z,282.20
2019-02-04T03:45:32.045Z,279.27
2019-02-04T03:48:05.404Z,276.58
2019-02-04T03:50:33.664Z,273.85
2019-02-04T03:53:03.471Z,278.07
2019-02-04T03:55:33.242Z,281.73
2019-02-04T03:58:04.208Z,274.70
2019-02-04T04:00:35.695Z,277.32
2019-02-04T04:03:05.651Z,282.32
2019-02-04T04:05:35.468Z,280.05
2019-02-04T04:08:06.055Z,281.85
2019-02-04T04:10:35.897Z,272.42
2019-02-04T04:13:05.588Z,274.27
2019-02-04T04:15:35.428Z,275.98
2019-02-04T04:18:15.364Z,272.65
2019-02-04T04:20:37.023Z,272.60
2019-02-04T04:23:06.797Z,268.65
2019-02-04T04:25:36.615Z,263.48
2019-02-04T04:28:06.385Z,261.32
2019-02-04T04:30:36.170Z,259.75
2019-02-04T04:33:06.011Z,265.87
2019-02-04T04:35:36.948Z,263.32
2019-02-04T04:38:06.803Z,262.90
2019-02-04T04:40:36.624Z,263.98
2019-02-04T04:43:06.429Z,261.73
2019-02-04T04:45:36.373Z,258.75
2019-02-04T04:48:06.215Z,261.43
2019-02-04T04:50:36.085Z,265.03
2019-02-04T04:53:05.876Z,265.25
2019-02-04T04:55:35.704Z,264.90
2019-02-04T04:58:05.704Z,267.20
2019-02-04T05:00:35.385Z,263.82
2019-02-04T05:03:05.215Z,266.15
2019-02-04T05:05:35.078Z,261.92
2019-02-04T05:08:05.097Z,257.32
2019-02-04T05:10:34.921Z,257.25
2019-02-04T05:13:05.046Z,256.35
2019-02-04T05:15:34.730Z,259.93
2019-02-04T05:18:04.558Z,260.00
2019-02-04T05:20:34.324Z,259.80
2019-02-04T05:23:04.083Z,260.65
2019-02-04T05:25:35.017Z,266.45
2019-02-04T05:28:04.685Z,264.95
2019-02-04T05:30:34.567Z,265.10
2019-02-04T05:33:04.614Z,270.37
2019-02-04T05:35:34.423Z,272.37
2019-02-04T05:38:04.441Z,270.07
2019-02-04T05:40:34.254Z,272.75
2019-02-04T05:43:04.166Z,272.90
2019-02-04T05:45:34.797Z,270.15
2019-02-04T05:48:04.611Z,269.33
2019-02-04T05:50:34.385Z,267.93
2019-02-04T05:53:04.602Z,267.35
2019-02-04T05:55:34.422Z,265.48
2019-02-04T05:58:05.130Z,268.97
2019-02-04T06:00:37.350Z,265.67
2019-02-04T06:03:07.140Z,268.95
2019-02-04T06:05:36.902Z,264.02
2019-02-04T06:08:06.746Z,265.23
2019-02-04T06:10:37.567Z,266.88
2019-02-04T06:13:08.319Z,276.25
2019-02-04T06:15:38.128Z,269.98
2019-02-04T06:18:07.960Z,270.63
2019-02-04T06:20:38.302Z,270.55
2019-02-04T06:23:07.971Z,264.55
2019-02-04T06:25:37.713Z,271.48
2019-02-04T06:28:08.366Z,271.32
2019-02-04T06:30:38.219Z,275.82
2019-02-04T06:33:08.929Z,269.50
2019-02-04T06:35:38.737Z,273.18
2019-02-04T06:38:08.506Z,274.37
2019-02-04T06:40:38.292Z,280.98
2019-02-04T06:43:07.965Z,277.18
2019-02-04T06:45:37.972Z,281.82
2019-02-04T06:48:08.145Z,275.82
2019-02-04T06:50:37.970Z,277.40
2019-02-04T06:53:07.690Z,283.47
2019-02-04T06:55:37.375Z,282.10
2019-02-04T06:58:07.141Z,280.60
2019-02-04T07:00:36.966Z,283.95
2019-02-04T07:03:06.833Z,285.90
2019-02-04T07:05:43.464Z,285.77
2019-02-04T07:08:08.252Z,287.35
2019-02-04T07:10:38.065Z,287.63
2019-02-04T07:13:08.132Z,287.60
2019-02-04T07:15:39.166Z,291.02
2019-02-04T07:18:09.418Z,291.80
2019-02-04T07:20:39.202Z,295.70
2019-02-04T07:23:08.890Z,297.63
2019-02-04T07:25:38.816Z,295.80
2019-02-04T07:28:08.571Z,294.90
2019-02-04T07:30:38.640Z,293.02
2019-02-04T07:33:08.480Z,298.18
2019-02-04T07:35:38.498Z,297.07
2019-02-04T07:38:08.240Z,291.50
2019-02-04T07:40:38.074Z,289.75
2019-02-04T07:43:07.828Z,291.98
2019-02-04T07:45:37.695Z,289.40
2019-02-04T07:48:07.507Z,294.37
2019-02-04T07:50:37.273Z,294.70
2019-02-04T07:53:07.083Z,292.07
2019-02-04T07:55:36.950Z,283.27
2019-02-04T07:58:07.375Z,280.30
2019-02-04T08:00:37.100Z,278.95
2019-02-04T08:03:06.832Z,280.77
2019-02-04T08:05:36.565Z,277.20
2019-02-04T08:08:06.515Z,279.90
2019-02-04T08:10:36.159Z,280.90
2019-02-04T08:13:06.081Z,284.48
2019-02-04T08:15:37.968Z,284.15
2019-02-04T08:18:07.930Z,286.67
2019-02-04T08:20:37.730Z,285.20
2019-02-04T08:23:07.568Z,286.65
2019-02-04T08:25:37.674Z,288.82
2019-02-04T08:28:07.426Z,290.90
2019-02-04T08:30:38.589Z,295.93
2019-02-04T08:33:08.535Z,299.40
2019-02-04T08:35:38.306Z,300.27
2019-02-04T08:38:08.112Z,299.80
2019-02-04T08:40:38.145Z,304.43
2019-02-04T08:43:07.999Z,292.97
2019-02-04T08:45:37.802Z,291.30
2019-02-04T08:48:07.463Z,293.82
2019-02-04T08:50:37.349Z,300.87
2019-02-04T08:53:07.148Z,297.30
2019-02-04T08:55:37.183Z,304.00
2019-02-04T08:58:07.324Z,306.25
2019-02-04T09:00:37.394Z,309.48
2019-02-04T09:03:07.199Z,308.00
2019-02-04T09:05:36.915Z,300.52
2019-02-04T09:08:06.653Z,303.15
2019-02-04T09:10:36.671Z,298.57
2019-02-04T09:13:06.449Z,299.23
2019-02-04T09:15:36.214Z,302.75
2019-02-04T09:18:06.011Z,296.57
2019-02-04T09:20:35.754Z,293.65
2019-02-04T09:23:06.615Z,290.05
2019-02-04T09:25:36.772Z,290.40
2019-02-04T09:28:06.655Z,291.90
2019-02-04T09:30:36.421Z,293.85
2019-02-04T09:33:06.231Z,294.05
2019-02-04T09:35:36.221Z,296.05
2019-02-04T09:38:06.018Z,295.27
2019-02-04T09:40:40.731Z,296.73
2019-02-04T09:43:10.454Z,296.57
2019-02-04T09:45:40.683Z,301.07
2019-02-04T09:48:13.425Z,295.77
2019-02-04T09:50:45.779Z,298.35
2019-02-04T09:53:16.628Z,300.07
2019-02-04T09:55:46.365Z,302.62
2019-02-04T09:58:16.008Z,301.95
2019-02-04T10:00:46.206Z,310.27
2019-02-04T10:03:18.920Z,311.20
2019-02-04T10:05:48.946Z,311.97
2019-02-04T10:08:18.713Z,308.07
2019-02-04T10:10:48.393Z,304.48
2019-02-04T10:13:18.170Z,305.80
2019-02-04T10:15:47.938Z,302.18
2019-02-04T10:18:17.696Z,298.50
2019-02-04T10:20:47.489Z,295.95
2019-02-04T10:23:17.377Z,299.23
2019-02-04T10:25:47.183Z,293.12
2019-02-04T10:28:17.018Z,295.57
2019-02-04T10:30:46.895Z,300.80
2019-02-04T10:33:16.824Z,298.40
2019-02-04T10:35:46.627Z,300.95
2019-02-04T10:38:16.812Z,300.93
2019-02-04T10:40:46.712Z,302.77
2019-02-04T10:43:16.732Z,309.67
2019-02-04T10:45:46.398Z,315.70
2019-02-04T10:48:16.181Z,311.32
2019-02-04T10:50:47.005Z,308.00
2019-02-04T10:53:17.293Z,306.10
2019-02-04T10:55:47.072Z,302.38
2019-02-04T10:58:16.920Z,304.98
2019-02-04T11:00:47.039Z,314.12
2019-02-04T11:03:16.702Z,314.77
2019-02-04T11:05:48.139Z,319.98
2019-02-04T11:08:17.926Z,324.37
2019-02-04T11:10:47.775Z,325.30
2019-02-04T11:13:18.031Z,327.75
2019-02-04T11:15:48.285Z,320.67
2019-02-04T11:18:19.086Z,319.33
2019-02-04T11:20:57.565Z,309.90
2019-02-04T11:23:20.463Z,313.37
2019-02-04T11:25:50.265Z,325.20
2019-02-04T11:28:20.327Z,326.23
2019-02-04T11:30:55.585Z,321.07
2019-02-04T11:33:26.793Z,317.43
2019-02-04T11:35:57.520Z,333.90
2019-02-04T11:38:27.250Z,344.25
2019-02-04T11:40:57.370Z,361.77
2019-02-04T11:43:27.202Z,368.75
2019-02-04T11:45:56.972Z,379.35
2019-02-04T11:48:26.659Z,377.93
2019-02-04T11:50:56.475Z,373.82
2019-02-04T11:53:33.168Z,385.73
2019-02-04T11:55:57.660Z,388.37
2019-02-04T11:58:28.478Z,399.50
2019-02-04T12:00:58.959Z,390.25
2019-02-04T12:03:28.762Z,400.98
2019-02-04T12:05:58.454Z,403.58
2019-02-04T12:08:28.573Z,407.62
2019-02-04T12:11:01.415Z,408.90
2019-02-04T12:13:31.147Z,411.20
2019-02-04T12:16:00.882Z,410.23
2019-02-04T12:18:30.636Z,407.33
2019-02-04T12:21:00.531Z,405.37
2019-02-04T12:23:30.535Z,416.40
2019-02-04T12:26:00.198Z,416.65
2019-02-04T12:28:29.950Z,413.33
2019-02-04T12:30:59.740Z,407.30
2019-02-04T12:33:29.571Z,397.88
2019-02-04T12:36:02.035Z,399.35
2019-02-04T12:38:31.014Z,405.48
2019-02-04T12:41:00.882Z,398.50
2019-02-04T12:43:30.597Z,398.90
2019-02-04T12:46:00.246Z,394.10
2019-02-04T12:48:30.003Z,381.63
2019-02-04T12:50:59.730Z,371.98
2019-02-04T12:53:29.428Z,365.90
2019-02-04T12:55:59.191Z,369.93
2019-02-04T12:58:29.164Z,365.12
2019-02-04T13:01:00.880Z,366.88
2019-02-04T13:03:31.030Z,368.30
2019-02-04T13:06:00.845Z,360.63
2019-02-04T13:08:30.544Z,364.77
2019-02-04T13:11:00.283Z,362.88
2019-02-04T13:13:29.985Z,362.57
2019-02-04T13:16:00.797Z,356.07
2019-02-04T13:18:31.600Z,362.48
2019-02-04T13:21:01.398Z,354.65
2019-02-04T13:23:31.183Z,355.90
2019-02-04T13:26:01.842Z,355.87
2019-02-04T13:28:31.643Z,354.35
2019-02-04T13:31:01.789Z,347.45
2019-02-04T13:33:37.099Z,346.45
2019-02-04T13:36:06.822Z,349.97
2019-02-04T13:38:36.427Z,350.80
2019-02-04T13:41:08.042Z,347.30
2019-02-04T13:43:37.784Z,347.02
2019-02-04T13:46:07.519Z,354.00
2019-02-04T13:48:37.205Z,347.90
2019-02-04T13:51:07.865Z,345.42
2019-02-04T13:53:37.630Z,343.83
2019-02-04T13:56:07.363Z,342.55
2019-02-04T13:58:37.067Z,343.23
2019-02-04T14:01:06.758Z,344.52
2019-02-04T14:03:36.516Z,344.07
2019-02-04T14:06:08.902Z,339.20
2019-02-04T14:08:38.751Z,331.68
2019-02-04T14:11:08.901Z,333.70
2019-02-04T14:13:38.701Z,338.27
2019-02-04T14:16:08.440Z,335.95
2019-02-04T14:18:38.222Z,334.50
2019-02-04T14:21:08.783Z,345.12
2019-02-04T14:23:38.723Z,338.90
2019-02-04T14:26:09.530Z,327.18
2019-02-04T14:28:40.276Z,324.27
2019-02-04T14:31:10.091Z,321.77
2019-02-04T14:33:39.761Z,314.08
2019-02-04T14:36:10.350Z,308.02
2019-02-04T14:38:40.182Z,304.48
2019-02-04T14:41:10.008Z,301.07
2019-02-04T14:43:42.705Z,300.52
2019-02-04T14:46:21.455Z,301.20
2019-02-04T14:49:11.103Z,295.55
2019-02-04T14:51:43.828Z,298.20
2019-02-04T14:54:19.313Z,299.35
2019-02-04T14:56:58.294Z,297.90
2019-02-04T14:59:29.624Z,294.17
2019-02-04T15:02:08.978Z,299.70
2019-02-04T15:04:56.642Z,298.65
2019-02-04T15:07:44.051Z,299.02
2019-02-04T15:10:21.338Z,300.55
2019-02-04T15:13:23.910Z,304.63
2019-02-04T15:16:02.426Z,304.45
2019-02-04T15:18:57.313Z,305.40
2019-02-04T15:21:38.927Z,310.47
2019-02-04T15:24:14.572Z,312.38
2019-02-04T15:27:21.679Z,315.10
2019-02-04T15:29:54.782Z,304.38
2019-02-04T15:32:30.011Z,305.23
2019-02-04T15:35:04.520Z,302.32
2019-02-04T15:38:03.616Z,302.35
2019-02-04T15:40:54.039Z,298.43
2019-02-04T15:43:42.843Z,301.35
2019-02-04T15:46:18.471Z,297.82
2019-02-04T15:49:08.591Z,293.20
2019-02-04T15:51:40.281Z,292.48
2019-02-04T15:54:10.076Z,282.23
2019-02-04T15:56:39.777Z,282.95
2019-02-04T15:59:09.624Z,279.30
2019-02-04T16:01:40.430Z,275.62
2019-02-04T16:04:30.303Z,275.38
2019-02-04T16:07:01.135Z,275.07
2019-02-04T16:09:31.149Z,267.27
2019-02-04T16:12:01.161Z,264.75
2019-02-04T16:14:31.310Z,263.52
2019-02-04T16:17:01.230Z,259.52
2019-02-04T16:19:31.116Z,263.20
2019-02-04T16:22:00.717Z,257.62
2019-02-04T16:24:30.559Z,255.60
2019-02-04T16:27:01.177Z,259.63
2019-02-04T16:29:33.149Z,255.17
2019-02-04T16:32:02.968Z,254.65
2019-02-04T16:34:32.632Z,265.23
2019-02-04T16:37:02.492Z,250.95
2019-02-04T16:39:32.228Z,255.98
2019-02-04T16:42:02.160Z,253.83
2019-02-04T16:44:31.981Z,263.02
2019-02-04T16:47:01.623Z,253.37
2019-02-04T16:49:31.338Z,253.52
2019-02-04T16:52:02.768Z,261.15
2019-02-04T16:54:32.854Z,258.75
2019-02-04T16:57:04.038Z,260.30
2019-02-04T16:59:33.776Z,260.55
2019-02-04T17:02:04.397Z,258.77
2019-02-04T17:04:34.140Z,258.60
2019-02-04T17:07:05.725Z,258.93
2019-02-04T17:09:35.496Z,261.67
2019-02-04T17:12:05.317Z,261.65
2019-02-04T17:14:34.942Z,265.12
2019-02-04T17:17:04.876Z,264.40
2019-02-04T17:19:34.825Z,264.45
2019-02-04T17:22:05.909Z,262.60
2019-02-04T17:24:36.056Z,267.00
2019-02-04T17:27:05.893Z,270.95
2019-02-04T17:29:35.645Z,272.90
2019-02-04T17:32:05.710Z,269.75
2019-02-04T17:34:35.406Z,269.27
2019-02-04T17:37:05.322Z,269.30
2019-02-04T17:39:35.406Z,266.20
2019-02-04T17:42:05.557Z,266.20
2019-02-04T17:44:35.291Z,264.12
2019-02-04T17:47:05.091Z,265.52
2019-02-04T17:49:34.780Z,267.80
2019-02-04T17:52:04.646Z,268.95
2019-02-04T17:54:34.294Z,268.45
2019-02-04T17:57:06.091Z,268.75
2019-02-04T17:59:36.101Z,271.35
2019-02-04T18:02:06.257Z,273.60
2019-02-04T18:04:36.954Z,272.20
2019-02-04T18:07:06.995Z,272.98
2019-02-04T18:09:36.764Z,276.23
2019-02-04T18:12:07.564Z,273.60
2019-02-04T18:14:37.362Z,269.50
2019-02-04T18:17:07.124Z,272.80
2019-02-04T18:19:36.809Z,275.40
2019-02-04T18:22:17.337Z,274.07
2019-02-04T18:24:47.174Z,275.32
2019-02-04T18:27:17.051Z,272.35
2019-02-04T18:29:46.781Z,272.63
2019-02-04T18:32:16.829Z,275.20
2019-02-04T18:34:46.593Z,274.12
2019-02-04T18:37:16.489Z,276.55
2019-02-04T18:39:47.366Z,271.62
2019-02-04T18:42:17.371Z,272.15
2019-02-04T18:44:47.547Z,270.33
2019-02-04T18:47:17.537Z,272.63
2019-02-04T18:49:47.285Z,272.43
2019-02-04T18:52:17.027Z,263.80
2019-02-04T18:54:47.166Z,268.25
2019-02-04T18:57:17.128Z,264.85
2019-02-04T18:59:47.806Z,259.98
2019-02-04T19:02:17.577Z,260.73
2019-02-04T19:04:49.175Z,251.98
2019-02-04T19:07:19.797Z,245.22
2019-02-04T19:09:49.662Z,243.50
2019-02-04T19:12:19.604Z,248.38
2019-02-04T19:14:49.363Z,242.40
2019-02-04T19:17:19.293Z,243.73
2019-02-04T19:19:48.979Z,240.37
2019-02-04T19:22:18.836Z,239.80
2019-02-04T19:24:48.681Z,241.10
2019-02-04T19:27:18.351Z,238.85
2019-02-04T19:29:48.123Z,238.25
2019-02-04T19:32:17.899Z,237.12
2019-02-04T19:34:47.603Z,236.28
2019-02-04T19:37:17.357Z,234.85
2019-02-04T19:39:47.424Z,233.50
2019-02-04T19:42:17.873Z,232.70
2019-02-04T19:44:47.653Z,232.25
2019-02-04T19:47:17.521Z,233.02
2019-02-04T19:49:47.339Z,232.52
2019-02-04T19:52:17.127Z,232.62
2019-02-04T19:54:47.162Z,229.23
2019-02-04T19:57:16.866Z,233.17
2019-02-04T19:59:46.551Z,225.80
2019-02-04T20:02:16.339Z,226.60
2019-02-04T20:04:46.079Z,225.05
2019-02-04T20:07:15.873Z,225.00
2019-02-04T20:09:45.803Z,223.97
2019-02-04T20:12:15.760Z,220.07
2019-02-04T20:14:45.533Z,224.95
2019-02-04T20:17:15.161Z,224.37
2019-02-04T20:19:44.934Z,220.10
2019-02-04T20:22:14.872Z,221.75
2019-02-04T20:24:45.565Z,222.93
2019-02-04T20:27:15.347Z,217.30
2019-02-04T20:29:45.053Z,216.55
2019-02-04T20:32:14.935Z,216.60
2019-02-04T20:34:44.762Z,217.40
2019-02-04T20:37:14.960Z,219.25
2019-02-04T20:39:44.972Z,214.17
2019-02-04T20:42:14.830Z,217.32
2019-02-04T20:44:44.587Z,212.50
2019-02-04T20:47:14.479Z,213.22
2019-02-04T20:49:44.175Z,214.57
2019-02-04T20:52:14.303Z,211.27
2019-02-04T20:54:45.255Z,214.20
2019-02-04T20:57:15.264Z,213.22
2019-02-04T20:59:44.912Z,212.00
2019-02-04T21:02:14.770Z,215.97
2019-02-04T21:04:44.629Z,210.27
2019-02-04T21:07:14.527Z,214.80
2019-02-04T21:09:44.313Z,223.75
2019-02-04T21:12:14.099Z,217.62
2019-02-04T21:14:43.756Z,221.37
2019-02-04T21:17:14.304Z,219.40
2019-02-04T21:19:44.275Z,219.35
2019-02-04T21:22:14.948Z,227.80
2019-02-04T21:24:56.096Z,226.42
2019-02-04T21:27:16.065Z,224.47
2019-02-04T21:29:48.087Z,224.42
2019-02-04T21:32:17.891Z,227.28
2019-02-04T21:34:47.917Z,232.22
2019-02-04T21:37:17.535Z,229.82
2019-02-04T21:39:47.206Z,229.53
2019-02-04T21:42:17.058Z,228.50
2019-02-04T21:44:46.731Z,227.78
2019-02-04T21:47:16.401Z,231.43
2019-02-04T21:49:46.141Z,229.50
2019-02-04T21:52:15.851Z,227.35
2019-02-04T21:54:45.550Z,235.50
2019-02-04T21:57:15.222Z,230.45
2019-02-04T21:59:44.852Z,230.70
2019-02-04T22:02:14.626Z,231.43
2019-02-04T22:04:44.266Z,228.62
2019-02-04T22:07:14.014Z,227.20
2019-02-04T22:09:43.785Z,228.88
2019-02-04T22:12:13.851Z,228.18
2019-02-04T22:14:43.594Z,227.53
2019-02-04T22:17:13.739Z,226.15
2019-02-04T22:19:43.497Z,222.10
2019-02-04T22:22:13.254Z,224.00
2019-02-04T22:24:43.007Z,223.53
2019-02-04T22:27:13.585Z,225.13
2019-02-04T22:29:43.405Z,221.35
2019-02-04T22:32:13.103Z,220.60
2019-02-04T22:34:45.591Z,222.82
2019-02-04T22:37:14.490Z,215.92
2019-02-04T22:39:44.348Z,218.02
2019-02-04T22:42:14.078Z,216.42
2019-02-04T22:44:43.842Z,216.53
2019-02-04T22:47:13.865Z,215.28
2019-02-04T22:49:43.535Z,217.70
2019-02-04T22:52:13.275Z,212.33
2019-02-04T22:54:42.959Z,217.87
2019-02-04T22:57:12.709Z,214.17
2019-02-04T22:59:42.472Z,216.60
2019-02-04T23:02:12.884Z,215.97
2019-02-04T23:04:42.730Z,215.75
2019-02-04T23:07:12.553Z,212.87
2019-02-04T23:09:42.475Z,217.75
2019-02-04T23:12:12.501Z,213.92
2019-02-04T23:14:42.203Z,213.20
2019-02-04T23:17:12.096Z,212.12
2019-02-04T23:19:41.918Z,210.57
2019-02-04T23:22:11.728Z,211.70
2019-02-04T23:24:41.421Z,214.27
2019-02-04T23:27:11.116Z,209.57
2019-02-04T23:29:41.160Z,208.50
2019-02-04T23:32:10.772Z,211.15
2019-02-04T23:34:40.534Z,211.20
2019-02-04T23:37:10.454Z,213.87
2019-02-04T23:39:40.200Z,214.63
2019-02-04T23:42:10.022Z,212.65
2019-02-04T23:44:39.710Z,215.28
2019-02-04T23:47:09.608Z,207.43
2019-02-04T23:49:39.439Z,213.87
2019-02-04T23:52:09.189Z,212.50
2019-02-04T23:54:38.889Z,214.02
2019-02-04T23:57:09.185Z,211.05
2019-02-04T23:59:39.928Z,208.82
